Aviation Digital Data Service (ADDS)

Output produced by METARs form (0320 UTC 31 July 2014)
found at http://www.aviationweather.gov/adds/metars/
 
KMDT 310256Z 35004KT 10SM SCT060 BKN080 OVC110 20/13 A3006 RMK AO2 SLP178 T02000128 51012 $
KMDT 310156Z 36007KT 10SM SCT080 BKN130 BKN250 22/13 A3006 RMK AO2 SLP177 T02220128 $
KMDT 310056Z 21006KT 10SM FEW060 SCT120 SCT250 22/13 A3004 RMK AO2 SLP171 T02220133 $
KMDT 302356Z 22005KT 10SM FEW065 FEW120 SCT250 23/13 A3002 RMK AO2 SLP165 CB DSNT NW T02330128 10261 20233 $
KMDT 302256Z 20006KT 10SM FEW065 24/13 A3001 RMK AO2 SLP161 T02440128 $
KMDT 302156Z VRB04KT 10SM FEW060 26/13 A3000 RMK AO2 SLP159 T02560133 $
KMDT 302056Z VRB04KT 10SM SCT055 26/13 A3001 RMK AO2 SLP161 T02560128 $
KMDT 301956Z 20006KT 10SM SCT055 26/13 A3002 RMK AO2 SLP164 T02560133
KMDT 301856Z 00000KT 10SM SCT055 24/12 A3003 RMK AO2 SLP167 T02440117
KMDT 301756Z 15005KT 10SM BKN050 24/13 A3004 RMK AO2 SLP172 T02440128 10244 20161 58008
KMDT 301656Z 28004KT 10SM SCT035 24/11 A3005 RMK AO2 SLP175 T02390111
KMDT 301556Z 00000KT 10SM CLR 23/13 A3006 RMK AO2 SLP179 T02330128
KMDT 301456Z 32004KT 10SM CLR 22/12 A3007 RMK AO2 SLP182 T02170122 51002
KMDT 301356Z 30005KT 10SM CLR 19/13 A3006 RMK AO2 SLP180 T01940128
KMDT 301256Z 33006KT 10SM CLR 17/12 A3007 RMK AO2 SLP182 T01720122
KMDT 301156Z 00000KT 10SM CLR 16/12 A3006 RMK AO2 SLP179 T01610122 10167 20133 51017
KMDT 301056Z 00000KT 10SM CLR 15/12 A3005 RMK AO2 SLP176 T01500117
KMDT 300956Z 00000KT 10SM FEW090 14/12 A3003 RMK AO2 SLP169 T01390117
KMDT 300856Z 00000KT 10SM CLR 14/11 A3001 RMK AO2 SLP163 T01390111 51002
KMDT 300756Z 00000KT 10SM FEW085 14/12 A3001 RMK AO2 SLP162 T01390122
KMDT 300656Z 00000KT 10SM FEW090 15/12 A3001 RMK AO2 SLP161 T01500117
KMDT 300556Z 34004KT 10SM FEW090 16/12 A3001 RMK AO2 SLP161 T01560117 10206 20150 58001
KMDT 300456Z 00000KT 10SM FEW090 16/12 A3001 RMK AO2 SLP163 T01560117 402330150
KMDT 300356Z 35003KT 10SM FEW085 FEW250 17/12 A3001 RMK AO2 SLP161 T01670117
KMDT 300256Z 32004KT 10SM FEW085 SCT250 16/12 A3001 RMK AO2 SLP161 T01610122 52010
KMDT 300156Z 32004KT 10SM SCT085 SCT250 17/12 A3000 RMK AO2 SLP159 T01720122
KMDT 300056Z 31005KT 10SM BKN085 BKN250 18/12 A2998 RMK AO2 SLP153 T01830117
KMDT 292356Z 34005KT 10SM BKN085 BKN250 21/09 A2998 RMK AO2 SLP151 T02060094 10233 20206 51013
KMDT 292256Z 34008KT 10SM FEW050 BKN080 BKN250 21/09 A2997 RMK AO2 SLP149 T02110089
KMDT 292156Z 31008KT 10SM FEW045 BKN085 BKN250 22/11 A2995 RMK AO2 SLP142 T02170111
KMDT 292056Z 31008KT 10SM FEW045 BKN080 OVC250 22/12 A2994 RMK AO2 SLP137 T02220122 53009
KMDT 291956Z 34011KT 10SM SCT045 BKN080 OVC250 22/12 A2993 RMK AO2 SLP133 T02220117
KMDT 291856Z 30009KT 10SM FEW045 BKN080 OVC250 23/12 A2992 RMK AO2 SLP131 T02280122
KMDT 291756Z 29007KT 10SM SCT045 OVC080 22/12 A2991 RMK AO2 SLP128 T02170117 10222 20172 56004
KMDT 291656Z 30008KT 10SM FEW050 SCT060 OVC075 21/13 A2992 RMK AO2 SLP130 T02110128
KMDT 291556Z 32004KT 10SM FEW030 SCT040 BKN055 21/12 A2992 RMK AO2 SLP129 T02060122